Time;durP1;ratioP1;P1;durP2;ratioP2;P2;SDS_P1;SDS_P2;PMS_P1;PMS_P2;Temp;Humidity;BMP_temperature;BMP_pressure;BME280_temperature;BME280_humidity;BME280_pressure;Samples;Min_cycle;Max_cycle;Signal;HPM_P1;HPM_P2
2023/01/02 00:00:24;;;;;;;3.72;1.80;;;11.80;99.90;;;;;;10471069;28;20030;-66
2023/01/02 00:05:24;;;;;;;4.90;2.22;;;11.80;99.90;;;;;;10448844;28;20083;-63
2023/01/02 00:10:25;;;;;;;4.95;2.75;;;11.80;99.90;;;;;;10475776;28;20112;-65
2023/01/02 00:15:25;;;;;;;3.80;2.50;;;11.80;99.90;;;;;;10459273;28;20040;-66
2023/01/02 00:20:26;;;;;;;4.82;2.30;;;11.80;99.90;;;;;;10466451;28;20017;-66
2023/01/02 00:25:27;;;;;;;2.60;1.88;;;11.80;99.90;;;;;;10464550;28;20024;-64
2023/01/02 00:30:27;;;;;;;3.22;2.55;;;11.80;99.90;;;;;;10474484;28;20033;-63
2023/01/02 00:35:28;;;;;;;3.20;2.25;;;11.80;99.90;;;;;;10470860;28;20036;-66
2023/01/02 00:40:29;;;;;;;5.30;2.30;;;11.80;99.90;;;;;;10469957;28;20012;-65
2023/01/02 00:45:29;;;;;;;6.60;2.58;;;11.80;99.90;;;;;;10459799;28;20020;-65
2023/01/02 00:50:30;;;;;;;6.05;2.13;;;11.80;99.90;;;;;;10465974;28;20013;-66
2023/01/02 00:55:30;;;;;;;2.75;1.83;;;11.80;99.90;;;;;;10462099;28;20064;-64
2023/01/02 01:00:31;;;;;;;4.40;2.55;;;11.80;99.90;;;;;;10464196;28;20020;-66
2023/01/02 01:05:32;;;;;;;5.72;2.58;;;11.80;99.90;;;;;;10479629;28;20112;-66
2023/01/02 01:10:35;;;;;;;3.90;2.17;;;11.80;99.90;;;;;;10451301;28;20461;-65
2023/01/02 01:15:35;;;;;;;4.00;2.40;;;11.80;99.90;;;;;;10457899;28;20044;-65
2023/01/02 01:20:38;;;;;;;6.78;2.53;;;11.80;99.90;;;;;;10463663;28;20024;-64
2023/01/02 01:25:38;;;;;;;4.25;2.15;;;11.80;99.90;;;;;;10479926;28;20025;-63
2023/01/02 01:30:39;;;;;;;3.22;2.10;;;11.80;99.90;;;;;;10465119;28;20063;-63
2023/01/02 01:35:39;;;;;;;3.80;2.40;;;11.80;99.90;;;;;;10478567;28;20039;-63
2023/01/02 01:40:41;;;;;;;3.47;2.33;;;11.80;99.90;;;;;;10474650;28;20017;-65
2023/01/02 01:45:43;;;;;;;3.25;2.42;;;11.80;99.90;;;;;;10461323;28;20180;-64
2023/01/02 01:50:44;;;;;;;4.22;2.67;;;11.80;99.90;;;;;;10462688;28;20020;-66
2023/01/02 01:55:51;;;;;;;4.25;2.30;;;11.80;99.90;;;;;;10469758;28;20036;-63
2023/01/02 02:00:52;;;;;;;3.42;2.28;;;11.80;99.90;;;;;;10468791;28;20028;-65
2023/01/02 02:05:54;;;;;;;6.05;2.88;;;11.80;99.90;;;;;;10464970;28;20028;-66
2023/01/02 02:10:58;;;;;;;6.13;2.88;;;11.80;99.90;;;;;;10472970;28;20116;-66
2023/01/02 02:16:17;;;;;;;4.78;2.85;;;11.80;99.90;;;;;;10485606;28;20642;-63
2023/01/02 02:21:45;;;;;;;3.67;2.67;;;11.80;99.90;;;;;;10471610;28;20039;-63
2023/01/02 02:27:23;;;;;;;5.20;3.28;;;11.80;99.90;;;;;;10468056;28;20108;-64
2023/01/02 02:32:58;;;;;;;5.20;2.75;;;11.80;99.90;;;;;;10463797;28;20041;-66
2023/01/02 02:38:14;;;;;;;4.88;2.75;;;11.80;99.90;;;;;;10436670;28;20094;-64
2023/01/02 02:43:48;;;;;;;4.18;2.70;;;11.80;99.90;;;;;;10459905;28;20035;-66
2023/01/02 02:49:04;;;;;;;5.65;2.70;;;11.80;99.90;;;;;;10462311;28;20024;-66
2023/01/02 02:54:23;;;;;;;5.38;2.65;;;11.80;99.90;;;;;;10467129;28;20170;-64
2023/01/02 02:59:24;;;;;;;6.65;2.80;;;11.80;99.90;;;;;;10477437;28;20111;-66
2023/01/02 03:04:24;;;;;;;4.63;2.70;;;11.80;99.90;;;;;;10469429;28;20078;-65
2023/01/02 03:09:43;;;;;;;6.53;2.95;;;11.80;99.90;;;;;;10469462;28;20067;-63
2023/01/02 03:14:56;;;;;;;7.30;3.00;;;11.80;99.90;;;;;;10470030;28;20049;-62
2023/01/02 03:20:05;;;;;;;6.30;2.75;;;11.80;99.90;;;;;;10464382;28;20062;-64
2023/01/02 03:25:09;;;;;;;5.63;2.75;;;11.80;99.90;;;;;;10457021;28;20021;-65
2023/01/02 03:30:20;;;;;;;6.53;2.88;;;11.80;99.90;;;;;;10468613;28;20104;-63
2023/01/02 03:35:26;;;;;;;4.60;2.70;;;11.80;99.90;;;;;;10474369;28;20036;-67
2023/01/02 03:40:39;;;;;;;4.50;2.72;;;11.90;99.90;;;;;;10464860;28;20051;-66
2023/01/02 03:45:47;;;;;;;3.83;2.55;;;11.80;99.90;;;;;;10473790;28;20541;-66
2023/01/02 03:50:53;;;;;;;5.35;3.03;;;11.80;99.90;;;;;;10465469;28;20028;-66
2023/01/02 03:56:20;;;;;;;8.52;3.10;;;11.80;99.90;;;;;;10463267;28;20048;-65
2023/01/02 04:01:32;;;;;;;6.25;2.78;;;11.80;99.90;;;;;;10445723;28;20032;-65
2023/01/02 04:06:41;;;;;;;6.07;2.58;;;11.80;99.90;;;;;;10465703;28;20020;-66
2023/01/02 04:11:46;;;;;;;4.10;2.47;;;11.80;99.90;;;;;;10470598;28;20052;-64
2023/01/02 04:16:49;;;;;;;5.93;2.45;;;11.80;99.90;;;;;;10461389;28;20029;-66
2023/01/02 04:21:54;;;;;;;5.18;2.92;;;11.80;99.90;;;;;;10468653;28;20017;-66
2023/01/02 04:27:27;;;;;;;5.97;2.85;;;11.80;99.90;;;;;;10450140;28;20079;-66
2023/01/02 04:32:42;;;;;;;3.75;2.70;;;12.00;99.90;;;;;;10475280;28;20045;-65
2023/01/02 04:37:43;;;;;;;5.75;2.92;;;11.80;99.90;;;;;;10484172;28;20098;-66
2023/01/02 04:42:44;;;;;;;4.97;2.65;;;11.80;99.90;;;;;;10476866;28;20102;-65
2023/01/02 04:47:47;;;;;;;7.57;3.05;;;11.80;99.90;;;;;;10468283;28;20035;-65
2023/01/02 04:52:48;;;;;;;6.00;3.20;;;11.80;99.90;;;;;;10474453;28;20839;-65
2023/01/02 04:57:49;;;;;;;4.82;2.90;;;11.80;99.90;;;;;;10468134;28;20700;-65
2023/01/02 05:02:49;;;;;;;6.35;3.47;;;11.80;99.90;;;;;;10462010;28;20351;-66
2023/01/02 05:07:50;;;;;;;4.78;3.05;;;11.80;99.90;;;;;;10471282;28;20017;-65
2023/01/02 05:12:50;;;;;;;4.80;2.90;;;11.80;99.90;;;;;;10485860;28;20028;-66
2023/01/02 05:17:51;;;;;;;6.75;3.05;;;11.80;99.90;;;;;;10469941;28;20013;-65
2023/01/02 05:28:11;;;;;;;5.70;2.70;;;11.80;99.90;;;;;;10480604;28;20025;-65
2023/01/02 05:33:11;;;;;;;6.18;2.95;;;11.90;99.90;;;;;;10471988;28;20043;-65
2023/01/02 05:38:12;;;;;;;4.22;2.50;;;12.50;99.90;;;;;;10478291;28;20012;-65
2023/01/02 05:43:13;;;;;;;4.88;2.80;;;11.90;99.90;;;;;;10476258;28;20493;-63
2023/01/02 05:48:13;;;;;;;5.72;2.70;;;11.90;99.90;;;;;;10465395;28;20545;-65
2023/01/02 05:53:15;;;;;;;7.40;2.92;;;11.90;99.90;;;;;;10460424;28;20028;-63
2023/01/02 05:58:16;;;;;;;4.95;2.42;;;11.90;99.90;;;;;;10459405;28;20078;-63
2023/01/02 06:03:16;;;;;;;4.03;2.63;;;11.90;99.90;;;;;;10457711;28;20119;-65
2023/01/02 06:08:17;;;;;;;7.05;2.92;;;11.90;99.90;;;;;;10454394;28;20033;-65
2023/01/02 06:13:17;;;;;;;4.90;3.00;;;11.90;99.90;;;;;;10479823;28;20029;-65
2023/01/02 06:18:18;;;;;;;5.38;2.60;;;11.90;99.90;;;;;;10470929;28;20029;-65
2023/01/02 06:23:19;;;;;;;6.25;2.80;;;11.90;99.90;;;;;;10467476;28;20021;-64
2023/01/02 06:28:20;;;;;;;7.07;3.03;;;11.90;99.90;;;;;;10461798;28;20070;-63
2023/01/02 06:33:20;;;;;;;3.40;2.58;;;11.90;99.90;;;;;;10465572;28;20036;-63
2023/01/02 06:38:21;;;;;;;5.10;2.63;;;11.90;99.90;;;;;;10475386;28;20021;-65
2023/01/02 06:43:22;;;;;;;6.25;2.85;;;11.90;99.90;;;;;;10465183;28;20583;-65
2023/01/02 06:48:23;;;;;;;4.70;3.10;;;11.90;99.90;;;;;;10459774;28;20031;-64
2023/01/02 06:53:25;;;;;;;5.68;2.50;;;11.90;99.90;;;;;;10464847;28;20119;-63
2023/01/02 06:58:29;;;;;;;4.50;2.58;;;11.90;99.90;;;;;;10460909;28;20029;-66
2023/01/02 07:03:30;;;;;;;5.20;2.80;;;11.90;99.90;;;;;;10457854;28;20025;-63
2023/01/02 07:08:31;;;;;;;4.75;2.60;;;11.90;99.90;;;;;;10470092;28;20048;-66
2023/01/02 07:13:32;;;;;;;4.40;2.38;;;11.90;99.90;;;;;;10466278;28;20024;-64
2023/01/02 07:18:35;;;;;;;5.68;2.70;;;11.90;99.90;;;;;;10467018;28;20027;-67
2023/01/02 07:23:36;;;;;;;4.03;2.30;;;11.90;99.90;;;;;;10472219;28;20043;-65
2023/01/02 07:28:38;;;;;;;3.60;2.30;;;11.90;99.90;;;;;;10465792;28;20104;-66
2023/01/02 07:33:38;;;;;;;3.90;2.58;;;11.80;99.90;;;;;;10474146;28;20565;-65
2023/01/02 07:38:39;;;;;;;4.70;2.63;;;11.80;99.90;;;;;;10467727;28;20129;-66
2023/01/02 07:43:40;;;;;;;3.13;2.22;;;11.80;99.90;;;;;;10463496;28;20047;-64
2023/01/02 07:48:41;;;;;;;3.50;2.50;;;11.80;99.90;;;;;;10472048;28;20017;-65
2023/01/02 07:53:42;;;;;;;4.18;2.20;;;11.80;99.90;;;;;;10471136;28;20033;-66
2023/01/02 07:58:43;;;;;;;3.08;2.40;;;11.80;99.90;;;;;;10475609;28;20020;-63
2023/01/02 08:03:43;;;;;;;4.25;2.30;;;11.80;99.90;;;;;;10476488;28;20021;-63
2023/01/02 08:08:44;;;;;;;4.25;2.05;;;11.80;99.90;;;;;;10478436;28;20025;-61
2023/01/02 08:13:45;;;;;;;6.57;2.38;;;11.80;99.90;;;;;;10473419;28;20611;-62
2023/01/02 08:18:54;;;;;;;3.00;2.03;;;11.80;99.90;;;;;;10458522;28;20362;-62
2023/01/02 08:23:54;;;;;;;4.32;2.25;;;11.90;99.90;;;;;;10463534;28;20076;-62
2023/01/02 08:28:55;;;;;;;6.03;2.20;;;11.80;99.90;;;;;;10473756;28;20112;-62
2023/01/02 08:33:55;;;;;;;4.88;2.40;;;11.80;99.90;;;;;;10470419;28;20043;-61
2023/01/02 08:38:56;;;;;;;4.10;2.20;;;11.80;99.90;;;;;;10481642;28;20021;-62
2023/01/02 08:43:57;;;;;;;4.57;2.25;;;11.80;99.90;;;;;;10471939;28;20032;-62
2023/01/02 08:48:57;;;;;;;5.22;2.20;;;11.80;99.90;;;;;;10468397;28;20343;-62
2023/01/02 08:53:58;;;;;;;5.65;1.92;;;11.70;99.90;;;;;;10464426;28;20037;-62
2023/01/02 08:59:04;;;;;;;3.10;1.98;;;11.80;99.90;;;;;;10472396;28;20017;-62
2023/01/02 09:04:06;;;;;;;4.20;1.88;;;11.70;99.90;;;;;;10466451;28;20028;-63
2023/01/02 09:09:08;;;;;;;3.20;2.05;;;11.70;99.90;;;;;;10461386;28;20017;-61
2023/01/02 09:14:09;;;;;;;2.97;1.98;;;11.70;99.90;;;;;;10476155;28;20029;-62
2023/01/02 09:19:09;;;;;;;3.38;1.65;;;11.70;99.90;;;;;;10474339;28;20032;-61
2023/01/02 09:24:10;;;;;;;3.13;1.45;;;11.70;99.90;;;;;;10472998;28;20500;-62
2023/01/02 09:29:12;;;;;;;3.13;1.77;;;11.70;99.90;;;;;;10477140;28;20028;-62
2023/01/02 09:34:13;;;;;;;4.00;2.10;;;11.70;99.90;;;;;;10476405;28;20032;-61
2023/01/02 09:39:13;;;;;;;2.47;1.70;;;11.60;99.90;;;;;;10475555;28;20025;-61
2023/01/02 09:44:40;;;;;;;2.78;1.45;;;11.70;99.90;;;;;;10469296;28;20024;-62
2023/01/02 09:49:59;;;;;;;3.38;2.03;;;11.70;99.90;;;;;;10478421;28;20016;-61
2023/01/02 09:55:00;;;;;;;2.70;2.00;;;11.60;99.90;;;;;;10468603;28;20376;-61
2023/01/02 10:00:22;;;;;;;3.22;1.70;;;11.80;99.90;;;;;;10480312;28;20023;-63
2023/01/02 10:05:55;;;;;;;2.97;1.48;;;11.70;99.90;;;;;;10477690;28;20025;-61
2023/01/02 10:11:33;;;;;;;1.83;1.13;;;11.60;99.90;;;;;;10475503;28;20070;-62
2023/01/02 10:16:41;;;;;;;2.30;1.20;;;11.60;99.90;;;;;;10384449;28;20386;-62
2023/01/02 10:21:45;;;;;;;3.33;1.30;;;11.70;99.90;;;;;;10472286;28;20013;-62
2023/01/02 10:26:51;;;;;;;3.05;1.98;;;11.60;99.90;;;;;;10466194;28;20037;-62
2023/01/02 10:32:01;;;;;;;1.90;1.30;;;11.60;99.90;;;;;;10471949;28;20033;-62
2023/01/02 10:37:13;;;;;;;1.80;1.23;;;11.60;99.90;;;;;;10462360;28;20028;-62
2023/01/02 10:42:15;;;;;;;1.92;1.35;;;11.60;99.90;;;;;;10469923;28;20032;-62
2023/01/02 10:47:32;;;;;;;1.70;1.20;;;11.60;99.90;;;;;;10478994;28;20103;-62
2023/01/02 10:52:46;;;;;;;2.25;1.50;;;11.60;99.90;;;;;;10475764;28;20035;-62
2023/01/02 10:57:50;;;;;;;2.67;1.33;;;11.60;99.90;;;;;;10479302;28;20350;-63
2023/01/02 11:03:06;;;;;;;2.22;1.40;;;11.60;99.90;;;;;;10473470;28;20009;-62
2023/01/02 11:08:12;;;;;;;2.08;1.20;;;11.60;99.90;;;;;;10483367;28;20472;-62
2023/01/02 11:13:16;;;;;;;2.80;1.10;;;11.70;99.90;;;;;;10465805;28;20032;-62
2023/01/02 11:18:26;;;;;;;3.03;1.20;;;11.70;99.90;;;;;;10463206;28;20032;-62
2023/01/02 11:23:29;;;;;;;2.53;1.42;;;11.70;99.90;;;;;;10466152;28;20020;-62
2023/01/02 11:28:34;;;;;;;1.75;1.10;;;11.70;99.90;;;;;;10469025;28;20108;-62
2023/01/02 11:33:36;;;;;;;1.90;1.20;;;11.70;99.90;;;;;;10471654;28;20037;-61
2023/01/02 11:38:49;;;;;;;2.42;1.20;;;11.70;99.90;;;;;;10484348;28;20497;-61
2023/01/02 11:43:55;;;;;;;2.58;1.20;;;11.60;99.90;;;;;;10467693;28;20023;-61
2023/01/02 11:49:13;;;;;;;2.70;1.40;;;11.60;99.90;;;;;;10477185;28;20047;-61
2023/01/02 11:54:28;;;;;;;2.53;1.30;;;11.60;99.90;;;;;;10464850;28;20024;-61
2023/01/02 11:59:40;;;;;;;2.90;1.13;;;11.60;99.90;;;;;;10476713;28;20025;-61
2023/01/02 12:04:41;;;;;;;2.67;1.17;;;11.60;99.90;;;;;;10469528;28;20180;-61
2023/01/02 12:09:55;;;;;;;2.67;0.98;;;11.60;99.90;;;;;;10461546;28;20475;-62
2023/01/02 12:15:28;;;;;;;3.08;1.17;;;11.60;99.90;;;;;;10466564;28;20085;-62
2023/01/02 12:21:06;;;;;;;3.67;1.10;;;11.60;99.90;;;;;;10471886;28;20029;-63
2023/01/02 12:26:20;;;;;;;3.77;1.03;;;11.60;99.90;;;;;;10463757;28;20023;-61
2023/01/02 12:31:58;;;;;;;4.68;1.23;;;11.60;99.90;;;;;;10473615;28;20389;-61
2023/01/02 12:37:14;;;;;;;1.37;1.10;;;11.60;99.90;;;;;;10467146;28;20158;-61
2023/01/02 12:42:26;;;;;;;7.53;0.90;;;11.60;99.90;;;;;;10466183;28;20528;-61
2023/01/02 12:48:03;;;;;;;2.72;0.88;;;11.60;99.90;;;;;;10465568;28;20033;-61
2023/01/02 12:53:35;;;;;;;3.35;0.95;;;11.60;99.90;;;;;;10476487;28;20094;-61
2023/01/02 12:58:59;;;;;;;3.85;1.10;;;11.60;99.90;;;;;;10460260;28;20048;-61
2023/01/02 13:04:24;;;;;;;3.75;1.10;;;11.60;99.90;;;;;;10479466;28;20031;-61
2023/01/02 13:09:30;;;;;;;5.50;1.23;;;11.60;99.90;;;;;;10465946;28;21229;-62
2023/01/02 13:14:40;;;;;;;2.92;1.17;;;11.60;99.90;;;;;;10467800;28;20036;-62
2023/01/02 13:19:52;;;;;;;1.92;1.02;;;11.60;99.90;;;;;;10479314;28;20021;-62
2023/01/02 13:24:55;;;;;;;4.40;1.10;;;11.60;99.90;;;;;;10474016;28;20423;-62
2023/01/02 13:29:56;;;;;;;4.22;1.50;;;11.60;99.90;;;;;;10472649;28;20295;-62
2023/01/02 13:35:01;;;;;;;2.42;0.93;;;11.10;99.90;;;;;;10484128;28;20043;-62
2023/01/02 13:40:03;;;;;;;3.00;1.00;;;11.60;99.90;;;;;;10471878;28;20041;-62
2023/01/02 13:45:30;;;;;;;3.70;1.10;;;11.60;99.90;;;;;;10471595;28;20021;-63
2023/01/02 13:50:34;;;;;;;3.42;0.90;;;11.60;99.90;;;;;;10474876;28;20013;-62
2023/01/02 13:55:38;;;;;;;2.85;1.00;;;11.60;99.90;;;;;;10476381;28;20044;-65
2023/01/02 14:00:42;;;;;;;5.13;0.88;;;11.60;99.90;;;;;;10481828;28;20065;-65
2023/01/02 14:05:55;;;;;;;6.07;1.17;;;11.60;99.90;;;;;;10480794;28;20017;-60
2023/01/02 14:11:00;;;;;;;7.10;1.15;;;11.50;99.90;;;;;;10453578;28;20476;-63
2023/01/02 14:16:16;;;;;;;3.83;1.23;;;11.50;99.90;;;;;;10466853;28;20060;-62
2023/01/02 14:21:18;;;;;;;5.22;1.15;;;11.50;99.90;;;;;;10477082;28;20020;-63
2023/01/02 14:26:26;;;;;;;5.38;1.30;;;11.60;99.90;;;;;;10477298;28;20024;-64
2023/01/02 14:31:34;;;;;;;3.07;1.00;;;11.60;99.90;;;;;;10474029;28;20019;-62
2023/01/02 14:36:43;;;;;;;7.63;1.42;;;11.60;99.90;;;;;;10478376;28;20287;-63
2023/01/02 14:47:16;;;;;;;2.35;1.10;;;11.60;99.90;;;;;;10472064;28;20381;-66
2023/01/02 14:52:28;;;;;;;2.33;0.95;;;11.60;99.90;;;;;;10482270;28;20029;-63
2023/01/02 14:57:36;;;;;;;4.25;1.15;;;11.50;99.90;;;;;;10478583;28;20048;-62
2023/01/02 15:02:41;;;;;;;2.33;0.90;;;11.50;99.90;;;;;;10480663;28;20082;-65
2023/01/02 15:07:48;;;;;;;5.78;1.30;;;11.50;99.90;;;;;;10462817;28;20020;-63
2023/01/02 15:13:06;;;;;;;2.80;1.00;;;11.50;99.90;;;;;;10479819;28;20044;-65
2023/01/02 15:18:32;;;;;;;5.93;1.20;;;11.50;99.90;;;;;;10481458;28;20021;-65
2023/01/02 15:23:34;;;;;;;4.30;1.33;;;11.40;99.90;;;;;;10483628;28;20103;-63
2023/01/02 15:28:35;;;;;;;2.05;1.25;;;11.40;99.90;;;;;;10476333;28;20025;-63
2023/01/02 15:33:35;;;;;;;2.03;1.00;;;11.40;99.90;;;;;;10468802;28;20037;-65
2023/01/02 15:38:36;;;;;;;2.75;1.00;;;11.40;99.90;;;;;;10466299;28;20535;-63
2023/01/02 15:48:58;;;;;;;2.38;0.88;;;11.30;99.90;;;;;;10477894;28;20052;-63
2023/01/02 15:53:59;;;;;;;2.60;0.90;;;11.30;99.90;;;;;;10461333;28;20076;-64
2023/01/02 15:59:00;;;;;;;2.85;0.88;;;11.30;99.90;;;;;;10467397;28;20476;-61
2023/01/02 16:04:04;;;;;;;1.45;0.80;;;11.20;99.90;;;;;;10456128;28;20016;-62
2023/01/02 16:09:14;;;;;;;2.17;1.00;;;11.30;99.90;;;;;;10459700;28;20033;-63
2023/01/02 16:14:38;;;;;;;3.90;0.80;;;11.30;99.90;;;;;;10467362;28;20045;-63
2023/01/02 16:20:25;;;;;;;2.00;0.80;;;11.30;99.90;;;;;;10460957;28;20021;-64
2023/01/02 16:25:34;;;;;;;1.60;0.90;;;11.30;99.90;;;;;;10461967;28;20560;-67
2023/01/02 16:30:38;;;;;;;2.38;0.88;;;11.30;99.90;;;;;;10482296;28;20104;-65
2023/01/02 16:35:54;;;;;;;4.28;1.10;;;11.20;99.90;;;;;;10467313;28;20037;-64
2023/01/02 16:41:03;;;;;;;3.25;1.42;;;11.20;99.90;;;;;;10471305;28;20024;-65
2023/01/02 16:46:09;;;;;;;4.30;1.23;;;11.20;99.90;;;;;;10472226;28;20025;-60
2023/01/02 16:51:13;;;;;;;3.92;1.25;;;11.20;99.90;;;;;;10483143;28;20078;-63
2023/01/02 16:56:14;;;;;;;4.50;1.20;;;11.20;99.90;;;;;;10472819;28;20512;-64
2023/01/02 17:01:19;;;;;;;1.65;1.17;;;11.30;99.90;;;;;;10472442;28;20036;-65
2023/01/02 17:06:20;;;;;;;7.55;1.60;;;11.30;99.90;;;;;;10464815;28;20055;-68
2023/01/02 17:11:23;;;;;;;4.20;1.30;;;11.30;99.90;;;;;;10454698;28;20111;-67
2023/01/02 17:16:23;;;;;;;4.20;1.33;;;11.30;99.90;;;;;;10475987;28;20028;-66
2023/01/02 17:21:24;;;;;;;4.65;1.30;;;11.30;99.90;;;;;;10476518;28;20017;-65
2023/01/02 17:26:25;;;;;;;3.10;1.05;;;11.40;99.90;;;;;;10474348;28;20100;-62
2023/01/02 17:31:25;;;;;;;3.70;1.10;;;11.20;99.90;;;;;;10479539;28;20295;-60
2023/01/02 17:36:26;;;;;;;3.47;1.15;;;11.20;99.90;;;;;;10473197;28;20247;-64
2023/01/02 17:41:27;;;;;;;4.70;1.10;;;11.10;99.90;;;;;;10467512;28;20024;-60
2023/01/02 17:46:28;;;;;;;3.08;1.38;;;11.10;99.90;;;;;;10467709;28;20710;-60
2023/01/02 17:51:28;;;;;;;2.90;1.20;;;11.10;99.90;;;;;;10473005;28;20464;-61
2023/01/02 17:56:30;;;;;;;3.22;1.20;;;11.10;99.90;;;;;;10479584;28;20028;-67
2023/01/02 18:01:30;;;;;;;2.78;1.20;;;11.00;99.90;;;;;;10470326;28;20370;-67
2023/01/02 18:06:31;;;;;;;3.08;1.20;;;11.00;99.90;;;;;;10474676;28;20024;-62
2023/01/02 18:11:34;;;;;;;1.73;1.10;;;11.00;99.90;;;;;;10481394;28;20013;-65
2023/01/02 18:16:38;;;;;;;2.58;1.17;;;11.00;99.90;;;;;;10468418;28;20032;-65
2023/01/02 18:21:40;;;;;;;4.47;1.08;;;10.90;99.90;;;;;;10477681;28;20098;-66
2023/01/02 18:26:40;;;;;;;2.30;1.33;;;10.90;99.90;;;;;;10482081;28;20355;-60
2023/01/02 18:31:43;;;;;;;2.38;1.10;;;10.90;99.90;;;;;;10482257;28;20020;-59
2023/01/02 18:36:44;;;;;;;4.63;1.65;;;11.10;99.90;;;;;;10456505;28;20366;-60
2023/01/02 18:41:44;;;;;;;4.65;1.23;;;11.00;99.90;;;;;;10467151;28;20013;-63
2023/01/02 18:46:47;;;;;;;3.95;1.30;;;11.00;99.90;;;;;;10470525;28;20532;-64
2023/01/02 18:52:05;;;;;;;4.70;1.30;;;11.00;99.90;;;;;;10473449;28;20043;-66
2023/01/02 18:57:13;;;;;;;5.53;1.37;;;11.00;99.90;;;;;;10473601;28;20032;-65
2023/01/02 19:02:26;;;;;;;3.23;1.20;;;10.90;99.90;;;;;;10461683;28;20141;-63
2023/01/02 19:07:28;;;;;;;2.42;1.30;;;10.90;99.90;;;;;;10475321;28;20025;-68
2023/01/02 19:17:48;;;;;;;3.47;1.50;;;10.80;99.90;;;;;;10471699;28;20031;-65
2023/01/02 19:22:49;;;;;;;3.10;1.30;;;10.80;99.90;;;;;;10480643;28;20491;-63
2023/01/02 19:27:52;;;;;;;2.55;1.30;;;10.80;99.90;;;;;;10479160;28;20109;-65
2023/01/02 19:32:53;;;;;;;3.65;1.23;;;10.70;99.90;;;;;;10467374;28;20103;-66
2023/01/02 19:37:54;;;;;;;3.25;1.60;;;10.70;99.90;;;;;;10468094;28;20127;-66
2023/01/02 19:42:54;;;;;;;3.17;1.25;;;10.70;99.90;;;;;;10467337;28;20116;-66
2023/01/02 19:48:03;;;;;;;2.25;1.20;;;10.70;99.90;;;;;;10465395;28;20036;-64
2023/01/02 19:53:04;;;;;;;3.78;1.50;;;10.60;99.90;;;;;;10455340;28;20028;-67
2023/01/02 19:58:05;;;;;;;4.00;1.30;;;10.00;99.90;;;;;;10473061;28;20032;-67
2023/01/02 20:03:06;;;;;;;2.88;1.00;;;10.60;99.90;;;;;;10472350;28;20028;-67
2023/01/02 20:08:06;;;;;;;2.08;1.20;;;10.60;99.90;;;;;;10470933;28;20529;-64
2023/01/02 20:13:07;;;;;;;2.05;1.42;;;10.60;99.90;;;;;;10465676;28;20124;-67
2023/01/02 20:18:08;;;;;;;3.58;1.20;;;10.50;99.90;;;;;;10475508;28;20032;-65
2023/01/02 20:23:08;;;;;;;2.03;1.55;;;10.50;99.90;;;;;;10474951;28;20476;-67
2023/01/02 20:28:09;;;;;;;2.42;1.40;;;10.50;99.90;;;;;;10471791;28;20468;-64
2023/01/02 20:33:10;;;;;;;1.92;1.40;;;10.50;99.90;;;;;;10473422;28;20028;-62
2023/01/02 20:38:10;;;;;;;1.98;1.50;;;10.40;99.90;;;;;;10475929;28;20025;-65
2023/01/02 20:43:11;;;;;;;1.88;1.30;;;10.40;99.90;;;;;;10471379;28;20016;-66
2023/01/02 20:48:12;;;;;;;2.92;1.38;;;10.40;99.90;;;;;;10469552;28;20043;-68
2023/01/02 20:53:12;;;;;;;2.80;1.65;;;10.40;99.90;;;;;;10470002;28;20078;-66
2023/01/02 20:58:13;;;;;;;4.47;1.40;;;10.40;99.90;;;;;;10466191;28;20048;-68
2023/01/02 21:03:14;;;;;;;1.85;1.38;;;10.30;99.90;;;;;;10469729;28;20025;-67
2023/01/02 21:08:14;;;;;;;2.65;1.40;;;10.30;99.90;;;;;;10466926;28;20028;-63
2023/01/02 21:13:15;;;;;;;1.48;1.08;;;10.30;99.90;;;;;;10474815;28;20032;-66
2023/01/02 21:18:26;;;;;;;2.78;1.50;;;10.30;99.90;;;;;;10478936;28;20032;-66
2023/01/02 21:23:28;;;;;;;2.83;1.48;;;10.30;99.90;;;;;;10472427;28;20389;-66
2023/01/02 21:28:29;;;;;;;2.30;1.58;;;10.30;99.90;;;;;;10471586;28;20393;-63
2023/01/02 21:33:29;;;;;;;2.55;1.45;;;10.20;99.90;;;;;;10474864;28;20041;-62
2023/01/02 21:38:30;;;;;;;4.53;1.80;;;10.20;99.90;;;;;;10477683;28;20029;-62
2023/01/02 21:43:31;;;;;;;4.43;1.92;;;10.30;99.90;;;;;;10479742;28;20039;-66
2023/01/02 21:48:33;;;;;;;2.25;1.58;;;10.20;99.90;;;;;;10478871;28;20016;-63
2023/01/02 21:53:35;;;;;;;2.95;1.58;;;10.30;99.90;;;;;;10474986;28;20378;-63
2023/01/02 21:58:36;;;;;;;3.20;1.60;;;10.10;99.90;;;;;;10477933;28;20574;-66
2023/01/02 22:03:36;;;;;;;3.17;1.90;;;10.10;99.90;;;;;;10475137;28;20031;-64
2023/01/02 22:08:37;;;;;;;2.85;1.90;;;10.10;99.90;;;;;;10478134;28;20012;-64
2023/01/02 22:13:38;;;;;;;3.08;1.92;;;10.10;99.90;;;;;;10473136;28;20052;-62
2023/01/02 22:18:38;;;;;;;2.15;1.70;;;10.10;99.90;;;;;;10473952;28;20419;-67
2023/01/02 22:23:39;;;;;;;2.92;1.83;;;10.10;99.90;;;;;;10476024;28;20044;-63
2023/01/02 22:28:41;;;;;;;3.17;1.77;;;10.10;99.90;;;;;;10473372;28;20037;-63
2023/01/02 22:33:42;;;;;;;4.88;1.80;;;10.10;99.90;;;;;;10470381;28;20819;-63
2023/01/02 22:38:43;;;;;;;1.98;1.40;;;10.00;99.90;;;;;;10465234;28;20348;-64
2023/01/02 22:43:44;;;;;;;3.20;1.92;;;10.00;99.90;;;;;;10471121;28;20142;-63
2023/01/02 22:48:45;;;;;;;2.65;1.80;;;10.00;99.90;;;;;;10471299;28;20465;-67
2023/01/02 22:53:46;;;;;;;4.32;1.98;;;9.90;99.90;;;;;;10471384;28;20354;-67
2023/01/02 22:58:47;;;;;;;3.90;1.95;;;9.90;99.90;;;;;;10478643;28;20266;-64
2023/01/02 23:03:48;;;;;;;2.78;1.90;;;9.90;99.90;;;;;;10471523;28;20110;-66
2023/01/02 23:08:50;;;;;;;3.45;2.05;;;9.90;99.90;;;;;;10466254;28;20024;-65
2023/01/02 23:13:51;;;;;;;3.00;2.10;;;9.90;99.90;;;;;;10470197;28;20029;-63
2023/01/02 23:24:13;;;;;;;4.68;2.25;;;9.90;99.90;;;;;;10479600;28;20050;-63
2023/01/02 23:29:16;;;;;;;4.55;1.95;;;9.80;99.90;;;;;;10477578;28;20043;-63
2023/01/02 23:34:20;;;;;;;4.05;1.90;;;9.80;99.90;;;;;;10476131;28;20373;-63
2023/01/02 23:39:23;;;;;;;4.03;2.13;;;9.80;99.90;;;;;;10469461;28;20525;-66
2023/01/02 23:44:24;;;;;;;3.92;2.10;;;9.80;99.90;;;;;;10461694;28;20073;-65
2023/01/02 23:49:25;;;;;;;4.55;2.10;;;9.80;99.90;;;;;;10462634;28;20461;-63
2023/01/02 23:54:26;;;;;;;2.60;1.80;;;9.70;99.90;;;;;;10459042;28;20029;-64
2023/01/02 23:59:26;;;;;;;4.57;2.17;;;9.80;99.90;;;;;;10467565;28;20086;-66
